Time;durP1;ratioP1;P1;durP2;ratioP2;P2;SDS_P1;SDS_P2;PMS_P1;PMS_P2;Temp;Humidity;BMP_temperature;BMP_pressure;BME280_temperature;BME280_humidity;BME280_pressure;Samples;Min_cycle;Max_cycle;Signal;HPM_P1;HPM_P2
2023/08/06 00:00:32;;;;;;;3.70;3.40;;;;;;;26.53;64.21;93757.41;5091772;28;20233;-72
2023/08/06 00:02:59;;;;;;;4.93;3.47;;;;;;;26.54;63.78;93767.09;5091964;28;20444;-72
2023/08/06 00:05:27;;;;;;;7.50;3.73;;;;;;;26.41;64.21;93770.22;5091786;28;20444;-73
2023/08/06 00:07:53;;;;;;;5.20;3.40;;;;;;;26.49;64.17;93754.41;5091879;28;20501;-72
2023/08/06 00:10:20;;;;;;;8.33;3.70;;;;;;;26.54;63.88;93749.06;5091815;28;20486;-72
2023/08/06 00:12:48;;;;;;;5.83;3.60;;;;;;;26.54;64.17;93761.72;5092137;28;20451;-73
2023/08/06 00:15:14;;;;;;;4.73;4.27;;;;;;;26.41;64.74;93744.13;5056606;28;20448;-72
2023/08/06 00:17:41;;;;;;;4.60;4.20;;;;;;;26.53;65.38;93738.56;5092008;28;20459;-72
2023/08/06 00:20:09;;;;;;;6.13;3.93;;;;;;;26.45;64.79;93734.47;5091812;28;20649;-72
2023/08/06 00:22:38;;;;;;;4.70;4.17;;;;;;;26.31;65.64;93735.09;5056715;28;20958;-72
2023/08/06 00:25:06;;;;;;;5.80;3.97;;;;;;;26.25;66.22;93737.75;5092917;28;20447;-72
2023/08/06 00:27:33;;;;;;;5.63;3.60;;;;;;;26.35;65.78;93737.09;5095311;28;20448;-72
2023/08/06 00:30:00;;;;;;;8.20;4.77;;;;;;;26.41;67.06;93732.56;5095162;28;20448;-73
2023/08/06 00:32:29;;;;;;;4.57;4.00;;;;;;;26.17;66.65;93730.16;5095174;28;20444;-72
2023/08/06 00:34:56;;;;;;;5.33;4.07;;;;;;;26.05;67.31;93734.06;5095343;28;20476;-72
2023/08/06 00:37:23;;;;;;;4.57;4.20;;;;;;;26.13;67.53;93720.16;5095147;28;20450;-72
2023/08/06 00:39:51;;;;;;;6.07;4.80;;;;;;;26.13;67.74;93717.47;5095065;28;20447;-72
2023/08/06 00:42:20;;;;;;;4.90;4.50;;;;;;;26.09;68.13;93719.06;5059611;28;20436;-73
2023/08/06 00:44:47;;;;;;;4.40;3.97;;;;;;;26.02;68.06;93719.25;5095238;28;20852;-72
2023/08/06 00:47:14;;;;;;;7.67;4.50;;;;;;;26.10;67.69;93717.97;5094832;28;20926;-72
2023/08/06 00:49:42;;;;;;;5.00;3.57;;;;;;;26.13;67.86;93709.41;5095109;28;20443;-72
2023/08/06 00:52:09;;;;;;;7.60;4.30;;;;;;;26.11;67.65;93709.66;5075623;28;20986;-72
2023/08/06 00:54:36;;;;;;;5.60;4.10;;;;;;;25.94;68.58;93707.06;5094851;28;20435;-72
2023/08/06 00:57:08;;;;;;;4.67;3.50;;;;;;;25.90;68.53;93697.88;5094700;28;20455;-72
2023/08/06 00:59:35;;;;;;;4.43;4.03;;;;;;;25.90;68.89;93695.19;5094645;28;20456;-72
2023/08/06 01:02:02;;;;;;;5.10;4.63;;;;;;;26.06;68.10;93688.09;5094837;28;20443;-73
2023/08/06 01:04:28;;;;;;;5.53;3.90;;;;;;;26.07;67.79;93688.91;5076279;28;20424;-73
2023/08/06 01:07:04;;;;;;;5.10;3.87;;;;;;;25.99;68.55;93692.03;5095967;28;20928;-72
2023/08/06 01:09:41;;;;;;;3.60;3.30;;;;;;;26.15;67.10;93686.56;5095167;28;20444;-73
2023/08/06 01:12:26;;;;;;;3.77;3.43;;;;;;;26.18;67.35;93663.72;5094668;28;20483;-73
2023/08/06 01:15:01;;;;;;;6.10;3.23;;;;;;;26.22;67.39;93664.84;5094706;28;20439;-72
2023/08/06 01:17:30;;;;;;;5.20;3.93;;;;;;;26.18;67.50;93659.16;5094500;28;20439;-73
2023/08/06 01:19:57;;;;;;;5.03;3.40;;;;;;;26.15;67.32;93669.63;5094492;28;20833;-72
2023/08/06 01:22:25;;;;;;;4.60;4.00;;;;;;;26.11;67.22;93663.94;5094205;28;20440;-72
2023/08/06 01:24:52;;;;;;;3.87;3.30;;;;;;;26.01;67.75;93657.66;5094424;28;20440;-72
2023/08/06 01:27:29;;;;;;;5.73;3.40;;;;;;;25.79;68.82;93645.09;5058562;28;20439;-73
2023/08/06 01:30:03;;;;;;;3.90;3.20;;;;;;;26.07;68.09;93635.97;5094253;28;20953;-73
2023/08/06 01:32:32;;;;;;;3.57;3.37;;;;;;;26.15;66.91;93637.34;5094328;28;20491;-72
2023/08/06 01:35:01;;;;;;;3.20;3.00;;;;;;;26.07;68.88;93652.09;5094200;28;20439;-72
2023/08/06 01:37:30;;;;;;;4.80;3.50;;;;;;;25.80;69.09;93660.16;5093803;28;20440;-72
2023/08/06 01:39:59;;;;;;;3.17;2.97;;;;;;;25.96;68.93;93652.22;5093897;28;20911;-72
2023/08/06 01:42:26;;;;;;;5.13;3.80;;;;;;;25.51;70.68;93643.44;5093886;28;20455;-72
2023/08/06 01:44:53;;;;;;;5.90;4.87;;;;;;;25.22;72.23;93642.84;5093878;28;20927;-73
2023/08/06 01:47:19;;;;;;;5.03;4.13;;;;;;;25.68;70.53;93638.00;5094022;28;20444;-72
2023/08/06 01:49:46;;;;;;;4.00;3.60;;;;;;;25.81;69.80;93644.84;5093641;28;20444;-72
2023/08/06 01:52:13;;;;;;;5.97;4.20;;;;;;;25.93;69.57;93638.25;5093779;28;20986;-72
2023/08/06 01:54:41;;;;;;;5.90;4.13;;;;;;;25.96;69.04;93630.72;5057684;28;20432;-72
2023/08/06 01:57:08;;;;;;;4.43;4.00;;;;;;;25.95;69.27;93643.34;5093605;28;20804;-72
2023/08/06 01:59:35;;;;;;;5.27;3.60;;;;;;;26.10;69.23;93637.31;5093536;28;20448;-72
2023/08/06 02:02:01;;;;;;;5.73;4.27;;;;;;;26.09;69.13;93638.38;5093507;28;20459;-72
2023/08/06 02:04:28;;;;;;;5.00;4.57;;;;;;;26.13;68.58;93632.22;5093598;28;20436;-72
2023/08/06 02:06:55;;;;;;;7.07;3.90;;;;;;;26.06;68.95;93628.16;5057921;28;20447;-72
2023/08/06 02:09:22;;;;;;;4.93;4.43;;;;;;;25.99;69.56;93627.53;5093231;28;20436;-72
2023/08/06 02:11:50;;;;;;;4.73;4.30;;;;;;;26.05;69.39;93632.72;5093574;28;20495;-72
2023/08/06 02:14:17;;;;;;;6.07;4.27;;;;;;;25.99;69.48;93628.34;5074357;28;20474;-73
2023/08/06 02:16:43;;;;;;;5.70;4.00;;;;;;;26.03;69.48;93634.84;5093320;28;20432;-72
2023/08/06 02:19:12;;;;;;;4.37;3.97;;;;;;;26.05;70.01;93627.34;5093191;28;20440;-72
2023/08/06 02:21:40;;;;;;;6.80;4.17;;;;;;;26.20;69.46;93626.63;5092987;28;20436;-73
2023/08/06 02:24:07;;;;;;;4.33;3.50;;;;;;;26.13;69.35;93628.72;5093315;28;20452;-73
2023/08/06 02:26:34;;;;;;;12.20;5.03;;;;;;;26.26;69.01;93639.03;5092807;28;20439;-73
2023/08/06 02:29:02;;;;;;;5.97;4.30;;;;;;;26.06;69.77;93647.78;5093334;28;20807;-72
2023/08/06 02:31:29;;;;;;;5.20;4.63;;;;;;;26.08;70.00;93659.09;5092792;28;20488;-72
2023/08/06 02:33:57;;;;;;;5.63;3.70;;;;;;;26.16;69.63;93653.22;5073846;28;20436;-72
2023/08/06 02:36:23;;;;;;;5.37;4.13;;;;;;;25.96;69.88;93654.91;5092812;28;20448;-73
2023/08/06 02:38:51;;;;;;;5.33;4.83;;;;;;;25.83;71.11;93658.84;5093133;28;20525;-72
2023/08/06 02:41:20;;;;;;;4.40;3.77;;;;;;;25.82;70.41;93671.47;5092869;28;20509;-72
2023/08/06 02:43:47;;;;;;;4.63;4.23;;;;;;;25.90;70.34;93667.50;5092843;28;20451;-72
2023/08/06 02:46:17;;;;;;;4.13;3.80;;;;;;;25.98;70.08;93674.28;5092753;28;20500;-72
2023/08/06 02:48:44;;;;;;;3.83;3.53;;;;;;;26.05;69.71;93678.41;5092010;28;20444;-72
2023/08/06 02:51:11;;;;;;;6.70;3.77;;;;;;;26.09;70.03;93676.03;5092783;28;20480;-72
2023/08/06 02:53:37;;;;;;;5.20;3.57;;;;;;;26.08;69.30;93669.03;5092511;28;20440;-73
2023/08/06 02:56:05;;;;;;;8.60;3.40;;;;;;;25.51;71.08;93645.31;5092859;28;20903;-72
2023/08/06 02:58:32;;;;;;;4.23;3.83;;;;;;;25.15;72.98;93636.03;5092693;28;20447;-72
2023/08/06 03:01:03;;;;;;;4.33;3.93;;;;;;;24.98;74.36;93654.84;5092414;28;20464;-72
2023/08/06 03:03:31;;;;;;;4.20;3.77;;;;;;;25.17;74.22;93669.66;5092257;28;20460;-72
2023/08/06 03:05:58;;;;;;;4.90;4.40;;;;;;;25.32;73.72;93645.66;5092558;28;20857;-73
2023/08/06 03:08:25;;;;;;;4.43;4.03;;;;;;;25.40;73.13;93617.53;5092643;28;20467;-73
2023/08/06 03:10:52;;;;;;;5.17;4.43;;;;;;;24.76;75.34;93609.22;5092466;28;20443;-72
2023/08/06 03:13:20;;;;;;;4.17;3.80;;;;;;;24.21;79.21;93601.16;5092416;28;20446;-72
2023/08/06 03:15:53;;;;;;;5.37;3.73;;;;;;;23.83;80.70;93632.19;5092578;28;20443;-72
2023/08/06 03:18:20;;;;;;;7.93;4.43;;;;;;;24.34;79.20;93657.19;5092405;28;20528;-72
2023/08/06 03:20:48;;;;;;;5.73;4.30;;;;;;;24.67;77.62;93619.56;5092392;28;20457;-72
2023/08/06 03:23:15;;;;;;;4.93;4.37;;;;;;;24.82;76.51;93602.03;5092303;28;20442;-72
2023/08/06 03:25:42;;;;;;;5.90;3.93;;;;;;;25.06;75.70;93592.72;5056555;28;20786;-73
2023/08/06 03:28:08;;;;;;;4.13;3.80;;;;;;;25.25;75.11;93631.59;5092375;28;21063;-72
2023/08/06 03:30:35;;;;;;;5.40;3.80;;;;;;;25.43;74.45;93640.38;5092373;28;20817;-72
2023/08/06 03:33:02;;;;;;;8.00;4.40;;;;;;;25.57;73.90;93657.75;5056735;28;20493;-72
2023/08/06 03:35:29;;;;;;;5.40;4.30;;;;;;;25.62;73.29;93663.97;5092123;28;20960;-72
2023/08/06 03:37:57;;;;;;;3.97;3.67;;;;;;;25.85;72.84;93654.84;5092079;28;20447;-73
2023/08/06 03:40:24;;;;;;;5.40;4.83;;;;;;;25.62;73.71;93649.72;5092186;28;20443;-74
2023/08/06 03:42:51;;;;;;;4.43;4.03;;;;;;;25.01;75.58;93646.34;5092273;28;20462;-73
2023/08/06 03:45:18;;;;;;;4.20;3.80;;;;;;;24.49;77.76;93665.44;5092222;28;20914;-72
2023/08/06 03:47:45;;;;;;;5.83;3.83;;;;;;;24.82;77.20;93666.44;5092314;28;20436;-72
2023/08/06 03:50:11;;;;;;;4.27;3.67;;;;;;;25.15;76.38;93657.50;5092120;28;20459;-72
2023/08/06 03:52:38;;;;;;;4.10;3.57;;;;;;;25.33;75.12;93660.69;5091906;28;20484;-72
2023/08/06 03:55:07;;;;;;;4.10;3.70;;;;;;;25.41;74.12;93669.38;5091929;28;20776;-72
2023/08/06 03:57:34;;;;;;;3.70;3.37;;;;;;;25.53;73.61;93672.75;5091883;28;20930;-72
2023/08/06 04:00:00;;;;;;;3.93;3.60;;;;;;;25.68;72.89;93691.72;5092933;28;20920;-73
2023/08/06 04:02:27;;;;;;;3.53;3.20;;;;;;;25.64;73.06;93707.53;5095783;28;20448;-73
2023/08/06 04:04:54;;;;;;;5.23;3.50;;;;;;;25.77;72.34;93708.25;5096075;28;20454;-72
2023/08/06 04:07:21;;;;;;;6.57;3.40;;;;;;;25.76;71.90;93694.00;5095475;28;20435;-72
2023/08/06 04:09:55;;;;;;;4.90;3.70;;;;;;;25.75;72.01;93673.56;5095762;28;20436;-72
2023/08/06 04:12:24;;;;;;;3.27;3.00;;;;;;;25.73;72.61;93656.03;5095495;28;20486;-73
2023/08/06 04:14:51;;;;;;;4.87;3.07;;;;;;;25.97;71.51;93648.47;5091717;28;20463;-72
2023/08/06 04:17:20;;;;;;;4.20;3.20;;;;;;;26.01;71.05;93646.91;5076167;28;20480;-72
2023/08/06 04:19:48;;;;;;;3.63;3.23;;;;;;;25.85;71.74;93649.47;5052547;28;20939;-72
2023/08/06 04:22:15;;;;;;;4.70;3.40;;;;;;;25.83;71.96;93651.59;5093850;28;20448;-73
2023/08/06 04:24:43;;;;;;;5.57;4.17;;;;;;;25.92;71.67;93655.44;5095545;28;20935;-72
2023/08/06 04:27:10;;;;;;;5.10;3.63;;;;;;;26.03;71.45;93652.84;5095710;28;20447;-73
2023/08/06 04:29:38;;;;;;;3.70;3.40;;;;;;;25.93;71.41;93646.31;5095655;28;20483;-74
2023/08/06 04:32:08;;;;;;;3.40;3.10;;;;;;;25.59;73.74;93651.03;5095489;28;20479;-74
2023/08/06 04:34:35;;;;;;;3.50;3.20;;;;;;;25.36;74.72;93643.25;5095276;28;20450;-74
2023/08/06 04:37:02;;;;;;;6.87;3.80;;;;;;;25.12;75.78;93633.84;5094539;28;20454;-74
2023/08/06 04:39:29;;;;;;;4.57;3.23;;;;;;;24.85;77.02;93620.31;5094793;28;20436;-74
2023/08/06 04:41:56;;;;;;;7.10;4.00;;;;;;;24.55;78.04;93615.34;5094426;28;20434;-74
2023/08/06 04:44:23;;;;;;;4.70;4.30;;;;;;;24.26;80.42;93614.63;5095482;28;20807;-74
2023/08/06 04:46:51;;;;;;;4.63;3.53;;;;;;;24.09;84.68;93609.31;5095389;28;20485;-74
2023/08/06 04:49:18;;;;;;;3.73;3.43;;;;;;;23.97;83.80;93605.88;5095421;28;20438;-74
2023/08/06 04:51:45;;;;;;;7.93;3.80;;;;;;;23.87;84.81;93601.16;5094946;28;20483;-74
2023/08/06 04:54:12;;;;;;;5.93;3.70;;;;;;;23.69;84.25;93598.72;5095177;28;20444;-73
2023/08/06 04:56:38;;;;;;;10.23;3.60;;;;;;;23.62;85.36;93590.03;5094797;28;20453;-74
2023/08/06 04:59:05;;;;;;;3.90;3.60;;;;;;;23.52;86.14;93597.88;5095794;28;20442;-74
2023/08/06 05:01:32;;;;;;;5.93;3.93;;;;;;;23.37;87.18;93591.16;5094893;28;20473;-74
2023/08/06 05:04:00;;;;;;;5.03;4.00;;;;;;;23.30;87.59;93593.19;5095015;28;20454;-74
2023/08/06 05:06:27;;;;;;;5.47;4.00;;;;;;;23.20;88.54;93595.69;5097212;28;20446;-74
2023/08/06 05:08:54;;;;;;;4.37;3.90;;;;;;;23.10;88.66;93593.59;5097294;28;20896;-74
2023/08/06 05:11:21;;;;;;;4.97;4.47;;;;;;;23.02;89.28;93596.66;5094347;28;20433;-74
2023/08/06 05:13:48;;;;;;;4.63;4.20;;;;;;;23.02;91.25;93604.69;5095084;28;20976;-73
2023/08/06 05:16:14;;;;;;;5.40;3.90;;;;;;;22.96;91.51;93616.34;5095487;28;20448;-74
2023/08/06 05:18:41;;;;;;;5.70;4.77;;;;;;;23.01;91.94;93607.63;5094522;28;20448;-75
2023/08/06 05:21:09;;;;;;;7.87;5.00;;;;;;;23.07;92.19;93606.66;5094776;28;20435;-74
2023/08/06 05:23:36;;;;;;;4.97;4.47;;;;;;;22.93;91.14;93611.47;5094239;28;20449;-74
2023/08/06 05:26:03;;;;;;;4.83;4.43;;;;;;;22.83;92.14;93611.25;5094269;28;20445;-74
2023/08/06 05:28:30;;;;;;;4.63;4.20;;;;;;;22.54;92.49;93610.34;5094148;28;20450;-74
2023/08/06 05:30:57;;;;;;;7.07;4.80;;;;;;;22.56;94.03;93618.97;5094450;28;20451;-73
2023/08/06 05:33:23;;;;;;;6.67;6.17;;;;;;;22.34;94.87;93612.59;5094500;28;20480;-74
2023/08/06 05:35:50;;;;;;;7.37;6.60;;;;;;;22.17;94.56;93607.94;5094499;28;20794;-76
2023/08/06 05:38:19;;;;;;;6.80;6.20;;;;;;;22.08;95.25;93597.84;5094189;28;20448;-75
2023/08/06 05:40:45;;;;;;;6.77;6.17;;;;;;;21.96;96.70;93589.78;5090226;28;20855;-74
2023/08/06 05:43:12;;;;;;;7.53;6.70;;;;;;;22.04;97.92;93597.50;5074963;28;20909;-75
2023/08/06 05:45:39;;;;;;;8.33;6.90;;;;;;;22.09;99.96;93602.13;5094052;28;20436;-75
2023/08/06 05:48:06;;;;;;;7.17;6.47;;;;;;;22.07;99.62;93583.66;5080486;28;20446;-74
2023/08/06 05:50:33;;;;;;;8.20;7.40;;;;;;;22.06;99.93;93598.06;5093935;28;20691;-74
2023/08/06 05:52:59;;;;;;;7.60;7.00;;;;;;;22.04;100.00;93597.50;5076975;28;20556;-74
2023/08/06 05:55:27;;;;;;;8.13;7.33;;;;;;;22.00;100.00;93598.97;5093164;28;20455;-74
2023/08/06 05:57:54;;;;;;;7.13;6.33;;;;;;;22.08;100.00;93598.66;5093771;28;20446;-74
2023/08/06 06:00:22;;;;;;;7.20;6.50;;;;;;;22.20;100.00;93595.97;5089982;28;20485;-76
2023/08/06 06:02:48;;;;;;;9.00;7.10;;;;;;;21.88;100.00;93608.81;5092207;28;20453;-74
2023/08/06 06:05:15;;;;;;;8.20;7.50;;;;;;;21.93;100.00;93616.94;5091283;28;20940;-74
2023/08/06 06:07:42;;;;;;;8.00;6.83;;;;;;;21.91;100.00;93622.53;5096882;28;20445;-75
2023/08/06 06:10:10;;;;;;;8.47;6.70;;;;;;;21.49;100.00;93618.25;5093164;28;20450;-75
2023/08/06 06:12:39;;;;;;;9.57;8.30;;;;;;;21.46;100.00;93627.53;5074454;28;21081;-74
2023/08/06 06:15:07;;;;;;;9.83;6.90;;;;;;;21.50;100.00;93633.25;5093436;28;20452;-74
2023/08/06 06:17:33;;;;;;;6.93;6.23;;;;;;;21.57;100.00;93640.09;5093560;28;20770;-74
2023/08/06 06:20:00;;;;;;;8.37;7.50;;;;;;;21.46;100.00;93646.22;5057883;28;20443;-75
2023/08/06 06:22:27;;;;;;;9.07;7.90;;;;;;;21.39;100.00;93647.34;5092214;28;20442;-73
2023/08/06 06:24:54;;;;;;;11.10;8.53;;;;;;;21.54;100.00;93661.09;5093014;28;20443;-73
2023/08/06 06:27:21;;;;;;;9.50;8.50;;;;;;;21.61;100.00;93651.94;5073929;28;20434;-74
2023/08/06 06:29:49;;;;;;;9.27;8.37;;;;;;;21.79;100.00;93659.09;5092907;28;20475;-73
2023/08/06 06:32:15;;;;;;;10.03;7.93;;;;;;;22.05;100.00;93662.44;5092778;28;20942;-74
2023/08/06 06:34:42;;;;;;;9.70;7.50;;;;;;;22.62;100.00;93668.03;5091944;28;20792;-73
2023/08/06 06:37:09;;;;;;;9.40;8.40;;;;;;;22.89;100.00;93674.53;5092163;28;20443;-73
2023/08/06 06:39:36;;;;;;;9.00;8.00;;;;;;;22.91;100.00;93675.13;5092350;28;20450;-74
2023/08/06 06:42:03;;;;;;;9.50;8.27;;;;;;;22.95;100.00;93672.78;5092044;28;20428;-73
2023/08/06 06:44:29;;;;;;;10.07;9.07;;;;;;;22.85;100.00;93674.19;5092334;28;20447;-73
2023/08/06 06:46:58;;;;;;;13.17;9.20;;;;;;;22.70;100.00;93681.03;5092227;28;20450;-74
2023/08/06 06:49:24;;;;;;;11.70;9.23;;;;;;;22.66;100.00;93693.25;5091918;28;20939;-74
2023/08/06 06:51:52;;;;;;;9.40;8.50;;;;;;;22.46;100.00;93697.06;5092231;28;20440;-74
2023/08/06 06:54:18;;;;;;;6.90;6.03;;;;;;;22.40;99.09;93707.88;5092255;28;20489;-73
2023/08/06 06:56:45;;;;;;;9.40;7.00;;;;;;;22.42;99.04;93705.78;5092019;28;20451;-74
2023/08/06 06:59:12;;;;;;;7.80;7.00;;;;;;;22.45;99.06;93713.34;5091780;28;20489;-73
2023/08/06 07:01:39;;;;;;;8.73;7.57;;;;;;;22.60;100.00;93705.69;5092137;28;20467;-74
2023/08/06 07:04:07;;;;;;;6.83;6.13;;;;;;;22.70;100.00;93719.28;5092131;28;20448;-74
2023/08/06 07:06:34;;;;;;;6.87;5.47;;;;;;;22.69;94.67;93716.84;5091880;28;20813;-74
2023/08/06 07:09:00;;;;;;;7.13;5.67;;;;;;;22.69;96.24;93727.53;5092331;28;20781;-73
2023/08/06 07:11:27;;;;;;;5.50;5.00;;;;;;;22.59;93.89;93720.13;5092069;28;20441;-74
2023/08/06 07:13:58;;;;;;;6.13;5.53;;;;;;;22.57;93.84;93722.22;5091921;28;20541;-74
2023/08/06 07:16:25;;;;;;;5.17;4.67;;;;;;;22.65;94.45;93731.75;5092014;28;20442;-74
2023/08/06 07:18:53;;;;;;;4.87;4.47;;;;;;;22.39;93.03;93727.66;5091892;28;20449;-74
2023/08/06 07:21:21;;;;;;;7.37;6.33;;;;;;;22.49;90.81;93725.22;5091757;28;20433;-74
2023/08/06 07:23:49;;;;;;;7.43;6.73;;;;;;;22.83;91.66;93723.59;5056242;28;20453;-73
2023/08/06 07:26:16;;;;;;;10.00;5.77;;;;;;;23.25;90.23;93721.59;5091928;28;20558;-74
2023/08/06 07:28:42;;;;;;;7.43;6.27;;;;;;;23.52;88.23;93711.16;5092030;28;20814;-74
2023/08/06 07:31:09;;;;;;;6.17;5.67;;;;;;;23.68;81.36;93714.94;5091665;28;20973;-74
2023/08/06 07:33:36;;;;;;;7.23;5.10;;;;;;;24.11;78.01;93727.81;5092366;28;20498;-75
2023/08/06 07:36:09;;;;;;;6.13;5.50;;;;;;;24.62;74.55;93721.44;5095848;28;20449;-74
2023/08/06 07:38:37;;;;;;;6.53;5.30;;;;;;;25.14;71.96;93720.31;5095601;28;20811;-74
2023/08/06 07:41:06;;;;;;;5.87;5.30;;;;;;;25.23;73.24;93711.59;5095855;28;20453;-74
2023/08/06 07:43:33;;;;;;;5.33;4.83;;;;;;;25.50;69.28;93716.22;5095805;28;20502;-74
2023/08/06 07:46:00;;;;;;;4.60;4.30;;;;;;;25.40;70.05;93708.03;5095445;28;20439;-74
2023/08/06 07:48:28;;;;;;;5.13;4.63;;;;;;;25.39;71.95;93714.47;5095541;28;20497;-73
2023/08/06 07:50:55;;;;;;;6.77;4.87;;;;;;;25.12;69.22;93717.88;5095257;28;20454;-74
2023/08/06 07:53:22;;;;;;;4.80;4.40;;;;;;;25.05;69.45;93713.75;5095234;28;20581;-74
2023/08/06 07:55:52;;;;;;;7.63;5.13;;;;;;;25.33;69.46;93713.59;5095411;28;20513;-75
2023/08/06 07:58:18;;;;;;;4.37;3.97;;;;;;;25.76;67.22;93707.44;5059682;28;20570;-74
2023/08/06 08:00:45;;;;;;;4.17;3.77;;;;;;;26.16;65.40;93706.22;5095511;28;20467;-74
2023/08/06 08:03:13;;;;;;;6.10;5.57;;;;;;;26.55;65.42;93707.63;5095048;28;20489;-75
2023/08/06 08:05:40;;;;;;;5.57;4.50;;;;;;;26.64;63.88;93696.41;5095214;28;20910;-74
2023/08/06 08:08:07;;;;;;;4.40;4.00;;;;;;;26.77;63.34;93701.34;5095454;28;20439;-74
2023/08/06 08:10:34;;;;;;;4.23;3.80;;;;;;;26.92;62.57;93696.06;5076013;28;20428;-74
2023/08/06 08:13:04;;;;;;;4.40;4.00;;;;;;;27.04;62.46;93699.41;5095198;28;20491;-74
2023/08/06 08:15:32;;;;;;;6.87;4.03;;;;;;;27.33;61.16;93701.69;5094949;28;20451;-74
2023/08/06 08:17:59;;;;;;;6.90;4.70;;;;;;;27.40;59.65;93691.47;5094810;28;20443;-74
2023/08/06 08:20:27;;;;;;;4.10;3.80;;;;;;;27.40;60.59;93708.47;5094920;28;20930;-75
2023/08/06 08:22:54;;;;;;;6.23;4.97;;;;;;;27.48;59.73;93703.66;5095002;28;20436;-74
2023/08/06 08:25:21;;;;;;;5.77;5.03;;;;;;;27.58;58.42;93709.09;5094833;28;20432;-74
2023/08/06 08:27:47;;;;;;;4.50;4.20;;;;;;;27.62;58.44;93699.41;5094870;28;20451;-74
2023/08/06 08:30:16;;;;;;;7.53;5.23;;;;;;;27.31;60.63;93710.03;5094529;28;20450;-74
2023/08/06 08:32:42;;;;;;;7.30;4.40;;;;;;;27.65;58.89;93715.88;5094659;28;20447;-74
2023/08/06 08:35:12;;;;;;;4.53;4.23;;;;;;;27.80;58.20;93712.44;5094704;28;20443;-74
2023/08/06 08:37:39;;;;;;;4.73;4.43;;;;;;;27.90;58.64;93717.03;5094796;28;20436;-74
2023/08/06 08:40:07;;;;;;;5.00;4.60;;;;;;;28.05;57.75;93712.50;5095165;28;20444;-74
2023/08/06 08:42:34;;;;;;;5.33;4.53;;;;;;;28.04;56.56;93702.75;5058894;28;20439;-74
2023/08/06 08:45:01;;;;;;;4.60;4.30;;;;;;;27.67;57.31;93696.75;5093787;28;20440;-74
2023/08/06 08:47:29;;;;;;;4.60;4.20;;;;;;;27.83;56.99;93695.72;5094130;28;20444;-74
2023/08/06 08:49:56;;;;;;;5.90;5.50;;;;;;;27.98;56.29;93690.34;5094603;28;20448;-74
2023/08/06 08:52:24;;;;;;;4.97;4.60;;;;;;;27.97;55.69;93679.81;5094428;28;20448;-74
2023/08/06 08:54:52;;;;;;;4.20;3.90;;;;;;;27.92;56.21;93677.13;5094092;28;20838;-73
2023/08/06 08:57:19;;;;;;;5.57;5.07;;;;;;;27.87;56.20;93677.94;5058863;28;20898;-74
2023/08/06 08:59:46;;;;;;;7.00;5.23;;;;;;;27.77;57.25;93676.03;5093749;28;20472;-73
2023/08/06 09:02:16;;;;;;;4.63;4.33;;;;;;;27.72;56.63;93680.56;5093996;28;20495;-74
2023/08/06 09:04:45;;;;;;;4.30;3.90;;;;;;;27.81;56.45;93670.09;5093997;28;20486;-74
2023/08/06 09:07:17;;;;;;;5.57;4.73;;;;;;;27.86;57.21;93678.19;5093798;28;20436;-74
2023/08/06 09:09:47;;;;;;;4.77;4.40;;;;;;;27.94;57.30;93664.19;5093792;28;20455;-74
2023/08/06 09:12:16;;;;;;;4.70;4.30;;;;;;;28.06;57.17;93668.25;5093654;28;20443;-74
2023/08/06 09:14:43;;;;;;;4.23;3.93;;;;;;;27.90;56.94;93663.09;5094065;28;20487;-74
2023/08/06 09:17:11;;;;;;;5.33;4.60;;;;;;;27.70;57.32;93670.06;5093644;28;20448;-74
2023/08/06 09:19:38;;;;;;;4.90;4.50;;;;;;;27.44;58.36;93662.94;5094352;28;20524;-74
2023/08/06 09:22:10;;;;;;;5.33;4.83;;;;;;;27.62;58.61;93646.31;5094557;28;20463;-74
2023/08/06 09:24:40;;;;;;;5.03;4.20;;;;;;;27.64;63.63;93649.56;5060144;28;20493;-76
2023/08/06 09:27:12;;;;;;;4.57;4.27;;;;;;;27.74;58.07;93660.34;5094923;28;20505;-74
2023/08/06 09:29:42;;;;;;;4.20;3.90;;;;;;;27.93;57.96;93652.59;5094419;28;20452;-74
2023/08/06 09:32:09;;;;;;;6.50;4.37;;;;;;;27.98;58.30;93655.28;5094073;28;20478;-74
2023/08/06 09:34:39;;;;;;;12.73;4.70;;;;;;;27.84;58.07;93653.38;5094312;28;20487;-74
2023/08/06 09:37:10;;;;;;;4.67;4.20;;;;;;;27.79;56.88;93651.50;5093863;28;20459;-74
2023/08/06 09:39:37;;;;;;;4.40;4.10;;;;;;;27.85;53.83;93647.72;5094232;28;21198;-74
2023/08/06 09:42:05;;;;;;;5.53;4.90;;;;;;;27.95;56.18;93649.63;5094067;28;21183;-74
2023/08/06 09:44:32;;;;;;;4.30;3.90;;;;;;;27.99;53.33;93645.31;5094054;28;20452;-75
2023/08/06 09:47:01;;;;;;;4.30;4.00;;;;;;;28.19;54.48;93637.25;5093905;28;20450;-74
2023/08/06 09:49:29;;;;;;;4.50;4.10;;;;;;;28.31;53.55;93643.19;5094125;28;20597;-74
2023/08/06 09:51:58;;;;;;;4.67;4.20;;;;;;;28.47;52.23;93645.91;5093796;28;20432;-74
2023/08/06 09:54:27;;;;;;;4.33;4.00;;;;;;;28.56;52.03;93645.06;5093514;28;20480;-74
2023/08/06 09:56:54;;;;;;;4.70;4.30;;;;;;;28.54;51.25;93641.84;5089641;28;20444;-74
2023/08/06 09:59:21;;;;;;;4.50;4.10;;;;;;;28.40;52.13;93653.47;5087914;28;20443;-74
2023/08/06 10:01:48;;;;;;;3.93;3.63;;;;;;;28.33;52.15;93653.72;5092721;28;20440;-73
2023/08/06 10:04:17;;;;;;;5.30;3.57;;;;;;;28.24;53.46;93655.31;5091076;28;20456;-74
2023/08/06 10:06:47;;;;;;;4.40;4.00;;;;;;;28.00;52.82;93653.13;5092601;28;20451;-74
2023/08/06 10:09:15;;;;;;;8.13;4.30;;;;;;;27.75;52.21;93656.59;5090580;28;20871;-74
2023/08/06 10:11:43;;;;;;;5.03;3.77;;;;;;;27.71;53.88;93660.88;5092590;28;20444;-73
2023/08/06 10:14:14;;;;;;;5.07;4.57;;;;;;;27.69;53.84;93660.34;5092342;28;20487;-75
2023/08/06 10:16:42;;;;;;;4.13;3.73;;;;;;;27.60;54.39;93656.53;5080022;28;20991;-74
2023/08/06 10:19:12;;;;;;;3.47;3.17;;;;;;;27.55;53.52;93669.19;5092197;28;20652;-74
2023/08/06 10:21:39;;;;;;;4.00;3.70;;;;;;;27.52;55.16;93669.72;5056678;28;20791;-74
2023/08/06 10:24:10;;;;;;;3.67;3.37;;;;;;;27.60;54.26;93658.41;5092092;28;20443;-74
2023/08/06 10:26:37;;;;;;;4.43;4.03;;;;;;;27.71;55.00;93668.16;5092332;28;20436;-74
2023/08/06 10:29:38;;;;;;;5.70;3.40;;;;;;;27.72;55.55;93667.91;5092274;28;20447;-74
2023/08/06 10:32:06;;;;;;;4.33;3.23;;;;;;;27.68;56.30;93661.44;5092380;28;20443;-73
2023/08/06 10:34:57;;;;;;;4.30;3.90;;;;;;;27.37;53.41;93675.84;5092102;28;20484;-74
2023/08/06 10:37:24;;;;;;;5.10;3.97;;;;;;;27.13;54.17;93664.69;5012856;28;21297;-74
2023/08/06 10:39:52;;;;;;;4.47;4.07;;;;;;;26.99;55.39;93683.22;5029611;28;20958;-74
2023/08/06 10:42:23;;;;;;;4.63;4.13;;;;;;;26.80;56.16;93680.09;5029730;28;20465;-74
2023/08/06 10:45:19;;;;;;;3.73;3.47;;;;;;;26.74;55.17;93685.72;5029382;28;20553;-74
2023/08/06 10:47:46;;;;;;;4.10;3.70;;;;;;;26.67;57.11;93682.44;5029516;28;20441;-74
2023/08/06 10:50:16;;;;;;;3.80;3.40;;;;;;;26.61;55.97;93689.69;5029729;28;20442;-74
2023/08/06 10:52:43;;;;;;;4.23;3.83;;;;;;;26.46;57.44;93686.84;5030114;28;20767;-74
2023/08/06 10:55:10;;;;;;;3.80;3.50;;;;;;;26.40;55.61;93683.31;5029986;28;20886;-73
2023/08/06 10:57:37;;;;;;;6.50;3.40;;;;;;;26.32;56.23;93688.34;5030246;28;20542;-74
2023/08/06 11:00:05;;;;;;;3.60;3.30;;;;;;;26.27;57.20;93699.03;5029835;28;20477;-73
2023/08/06 11:02:36;;;;;;;4.57;3.53;;;;;;;26.19;58.41;93711.06;5029790;28;20438;-74
2023/08/06 11:05:10;;;;;;;3.03;2.83;;;;;;;26.07;58.64;93705.88;5029386;28;20445;-73
2023/08/06 11:07:41;;;;;;;4.80;3.50;;;;;;;26.04;59.19;93719.81;5027372;28;20855;-72
2023/08/06 11:10:09;;;;;;;6.17;3.40;;;;;;;26.06;60.57;93719.56;5025904;28;20988;-73
2023/08/06 11:12:36;;;;;;;3.60;3.30;;;;;;;26.18;61.31;93710.25;5030123;28;20450;-73
2023/08/06 11:15:04;;;;;;;7.00;3.93;;;;;;;26.23;60.01;93715.69;5075387;28;20475;-74
2023/08/06 11:17:33;;;;;;;4.50;4.07;;;;;;;26.24;60.06;93711.13;5092579;28;20455;-74
2023/08/06 11:20:02;;;;;;;5.40;4.07;;;;;;;26.34;59.66;93719.31;5092529;28;20431;-73
2023/08/06 11:22:29;;;;;;;12.63;3.70;;;;;;;26.51;60.79;93719.19;5092448;28;20753;-74
2023/08/06 11:24:56;;;;;;;4.07;3.47;;;;;;;26.76;58.77;93713.19;5092428;28;20452;-74
2023/08/06 11:27:23;;;;;;;5.90;4.03;;;;;;;26.78;57.55;93713.72;5073511;28;20515;-74
2023/08/06 11:29:50;;;;;;;4.60;4.10;;;;;;;26.61;58.05;93715.78;5092374;28;20440;-74
2023/08/06 11:32:16;;;;;;;4.27;3.73;;;;;;;26.62;58.61;93720.91;5092132;28;20444;-74
2023/08/06 11:34:44;;;;;;;6.40;4.03;;;;;;;26.44;58.54;93705.13;5092215;28;20492;-74